sensor_id;sensor_type;location;lat;lon;timestamp;temperature;humidity
24426;DHT22;12611;44.446;26.000;2023-04-06T00:00:28;8.40;91.30
24426;DHT22;12611;44.446;26.000;2023-04-06T00:02:56;8.40;91.30
24426;DHT22;12611;44.446;26.000;2023-04-06T00:05:25;8.40;91.30
24426;DHT22;12611;44.446;26.000;2023-04-06T00:07:54;8.40;91.20
24426;DHT22;12611;44.446;26.000;2023-04-06T00:10:23;8.40;91.30
24426;DHT22;12611;44.446;26.000;2023-04-06T00:12:51;8.50;91.20
24426;DHT22;12611;44.446;26.000;2023-04-06T00:15:21;8.40;91.10
24426;DHT22;12611;44.446;26.000;2023-04-06T00:17:50;8.40;91.10
24426;DHT22;12611;44.446;26.000;2023-04-06T00:20:19;8.40;91.10
24426;DHT22;12611;44.446;26.000;2023-04-06T00:22:47;8.30;91.00
24426;DHT22;12611;44.446;26.000;2023-04-06T00:25:16;8.30;91.10
24426;DHT22;12611;44.446;26.000;2023-04-06T00:27:44;8.30;91.10
24426;DHT22;12611;44.446;26.000;2023-04-06T00:30:13;8.30;91.10
24426;DHT22;12611;44.446;26.000;2023-04-06T00:32:42;8.30;91.10
24426;DHT22;12611;44.446;26.000;2023-04-06T00:35:11;8.20;91.10
24426;DHT22;12611;44.446;26.000;2023-04-06T00:37:39;8.20;91.20
24426;DHT22;12611;44.446;26.000;2023-04-06T00:40:09;8.20;91.20
24426;DHT22;12611;44.446;26.000;2023-04-06T00:42:38;8.20;91.20
24426;DHT22;12611;44.446;26.000;2023-04-06T00:45:07;8.30;91.30
24426;DHT22;12611;44.446;26.000;2023-04-06T00:47:36;8.20;91.30
24426;DHT22;12611;44.446;26.000;2023-04-06T00:50:07;8.30;91.20
24426;DHT22;12611;44.446;26.000;2023-04-06T00:52:36;8.20;91.10
24426;DHT22;12611;44.446;26.000;2023-04-06T00:55:05;8.20;91.10
24426;DHT22;12611;44.446;26.000;2023-04-06T00:57:33;8.20;91.10
24426;DHT22;12611;44.446;26.000;2023-04-06T01:00:02;8.20;91.20
24426;DHT22;12611;44.446;26.000;2023-04-06T01:02:31;8.20;91.20
24426;DHT22;12611;44.446;26.000;2023-04-06T01:04:59;8.20;91.20
24426;DHT22;12611;44.446;26.000;2023-04-06T01:07:29;8.20;91.20
24426;DHT22;12611;44.446;26.000;2023-04-06T01:09:58;8.20;91.20
24426;DHT22;12611;44.446;26.000;2023-04-06T01:12:26;8.20;91.20
24426;DHT22;12611;44.446;26.000;2023-04-06T01:14:55;8.20;91.20
24426;DHT22;12611;44.446;26.000;2023-04-06T01:17:23;8.20;91.30
24426;DHT22;12611;44.446;26.000;2023-04-06T01:19:52;8.10;91.30
24426;DHT22;12611;44.446;26.000;2023-04-06T01:22:22;8.10;91.30
24426;DHT22;12611;44.446;26.000;2023-04-06T01:24:52;8.10;91.40
24426;DHT22;12611;44.446;26.000;2023-04-06T01:27:20;8.10;91.40
24426;DHT22;12611;44.446;26.000;2023-04-06T01:29:48;8.20;91.50
24426;DHT22;12611;44.446;26.000;2023-04-06T01:32:17;8.10;91.50
24426;DHT22;12611;44.446;26.000;2023-04-06T01:34:45;8.20;91.50
24426;DHT22;12611;44.446;26.000;2023-04-06T01:37:14;8.20;91.60
24426;DHT22;12611;44.446;26.000;2023-04-06T01:39:44;8.20;91.50
24426;DHT22;12611;44.446;26.000;2023-04-06T01:42:13;8.20;91.50
24426;DHT22;12611;44.446;26.000;2023-04-06T01:44:41;8.20;91.50
24426;DHT22;12611;44.446;26.000;2023-04-06T01:47:09;8.20;91.50
24426;DHT22;12611;44.446;26.000;2023-04-06T01:49:38;8.20;91.60
24426;DHT22;12611;44.446;26.000;2023-04-06T01:52:06;8.20;91.60
24426;DHT22;12611;44.446;26.000;2023-04-06T01:54:35;8.10;91.60
24426;DHT22;12611;44.446;26.000;2023-04-06T01:57:04;8.10;91.70
24426;DHT22;12611;44.446;26.000;2023-04-06T01:59:33;8.10;91.70
24426;DHT22;12611;44.446;26.000;2023-04-06T02:02:01;8.10;91.80
24426;DHT22;12611;44.446;26.000;2023-04-06T02:04:30;8.00;91.80
24426;DHT22;12611;44.446;26.000;2023-04-06T02:06:58;8.10;91.90
24426;DHT22;12611;44.446;26.000;2023-04-06T02:09:27;8.10;91.90
24426;DHT22;12611;44.446;26.000;2023-04-06T02:11:55;8.00;91.90
24426;DHT22;12611;44.446;26.000;2023-04-06T02:14:25;8.00;92.00
24426;DHT22;12611;44.446;26.000;2023-04-06T02:16:54;8.00;92.00
24426;DHT22;12611;44.446;26.000;2023-04-06T02:19:22;8.00;92.10
24426;DHT22;12611;44.446;26.000;2023-04-06T02:21:51;8.00;92.10
24426;DHT22;12611;44.446;26.000;2023-04-06T02:24:19;8.00;92.10
24426;DHT22;12611;44.446;26.000;2023-04-06T02:26:47;8.00;92.20
24426;DHT22;12611;44.446;26.000;2023-04-06T02:29:16;8.10;92.10
24426;DHT22;12611;44.446;26.000;2023-04-06T02:31:46;8.00;92.10
24426;DHT22;12611;44.446;26.000;2023-04-06T02:34:14;8.10;92.20
24426;DHT22;12611;44.446;26.000;2023-04-06T02:36:45;8.10;92.10
24426;DHT22;12611;44.446;26.000;2023-04-06T02:39:14;8.20;92.10
24426;DHT22;12611;44.446;26.000;2023-04-06T02:41:42;8.20;92.10
24426;DHT22;12611;44.446;26.000;2023-04-06T02:44:11;8.10;92.10
24426;DHT22;12611;44.446;26.000;2023-04-06T02:46:39;8.10;92.10
24426;DHT22;12611;44.446;26.000;2023-04-06T02:49:09;8.10;92.10
24426;DHT22;12611;44.446;26.000;2023-04-06T02:51:38;8.10;92.10
24426;DHT22;12611;44.446;26.000;2023-04-06T02:54:06;8.10;92.20
24426;DHT22;12611;44.446;26.000;2023-04-06T02:56:35;8.20;92.10
24426;DHT22;12611;44.446;26.000;2023-04-06T02:59:03;8.20;92.20
24426;DHT22;12611;44.446;26.000;2023-04-06T03:01:32;8.10;92.20
24426;DHT22;12611;44.446;26.000;2023-04-06T03:04:01;8.20;92.20
24426;DHT22;12611;44.446;26.000;2023-04-06T03:06:30;8.10;92.20
24426;DHT22;12611;44.446;26.000;2023-04-06T03:08:59;8.10;92.20
24426;DHT22;12611;44.446;26.000;2023-04-06T03:11:27;8.10;92.30
24426;DHT22;12611;44.446;26.000;2023-04-06T03:13:56;8.10;92.30
24426;DHT22;12611;44.446;26.000;2023-04-06T03:16:24;8.10;92.30
24426;DHT22;12611;44.446;26.000;2023-04-06T03:18:52;8.10;92.40
24426;DHT22;12611;44.446;26.000;2023-04-06T03:21:21;8.00;92.40
24426;DHT22;12611;44.446;26.000;2023-04-06T03:23:51;8.10;92.50
24426;DHT22;12611;44.446;26.000;2023-04-06T03:26:19;8.00;92.60
24426;DHT22;12611;44.446;26.000;2023-04-06T03:28:49;8.10;92.50
24426;DHT22;12611;44.446;26.000;2023-04-06T03:31:17;8.00;92.50
24426;DHT22;12611;44.446;26.000;2023-04-06T03:33:46;8.00;92.60
24426;DHT22;12611;44.446;26.000;2023-04-06T03:36:14;8.00;92.60
24426;DHT22;12611;44.446;26.000;2023-04-06T03:38:43;8.00;92.70
24426;DHT22;12611;44.446;26.000;2023-04-06T03:41:13;8.00;92.80
24426;DHT22;12611;44.446;26.000;2023-04-06T03:43:41;7.90;92.80
24426;DHT22;12611;44.446;26.000;2023-04-06T03:46:10;7.90;92.80
24426;DHT22;12611;44.446;26.000;2023-04-06T03:48:38;7.90;92.80
24426;DHT22;12611;44.446;26.000;2023-04-06T03:51:07;7.90;92.80
24426;DHT22;12611;44.446;26.000;2023-04-06T03:53:35;7.90;92.90
24426;DHT22;12611;44.446;26.000;2023-04-06T03:56:05;7.90;92.90
24426;DHT22;12611;44.446;26.000;2023-04-06T03:58:35;7.90;93.00
24426;DHT22;12611;44.446;26.000;2023-04-06T04:01:03;7.90;93.00
24426;DHT22;12611;44.446;26.000;2023-04-06T04:03:32;7.90;93.00
24426;DHT22;12611;44.446;26.000;2023-04-06T04:06:00;7.90;93.10
24426;DHT22;12611;44.446;26.000;2023-04-06T04:08:29;7.90;93.20
24426;DHT22;12611;44.446;26.000;2023-04-06T04:10:57;7.90;93.20
24426;DHT22;12611;44.446;26.000;2023-04-06T04:13:26;7.90;93.20
24426;DHT22;12611;44.446;26.000;2023-04-06T04:15:55;7.90;93.20
24426;DHT22;12611;44.446;26.000;2023-04-06T04:18:24;7.90;93.20
24426;DHT22;12611;44.446;26.000;2023-04-06T04:20:53;7.90;93.20
24426;DHT22;12611;44.446;26.000;2023-04-06T04:23:21;7.90;93.30
24426;DHT22;12611;44.446;26.000;2023-04-06T04:25:49;7.90;93.30
24426;DHT22;12611;44.446;26.000;2023-04-06T04:28:18;7.90;93.30
24426;DHT22;12611;44.446;26.000;2023-04-06T04:30:47;7.90;93.30
24426;DHT22;12611;44.446;26.000;2023-04-06T04:33:16;8.00;93.60
24426;DHT22;12611;44.446;26.000;2023-04-06T04:35:45;7.90;93.20
24426;DHT22;12611;44.446;26.000;2023-04-06T04:38:13;8.00;93.20
24426;DHT22;12611;44.446;26.000;2023-04-06T04:40:41;7.90;93.20
24426;DHT22;12611;44.446;26.000;2023-04-06T04:43:10;7.90;93.20
24426;DHT22;12611;44.446;26.000;2023-04-06T04:45:38;7.90;93.20
24426;DHT22;12611;44.446;26.000;2023-04-06T04:48:07;8.00;93.10
24426;DHT22;12611;44.446;26.000;2023-04-06T04:50:37;8.00;93.20
24426;DHT22;12611;44.446;26.000;2023-04-06T04:53:06;8.10;93.10
24426;DHT22;12611;44.446;26.000;2023-04-06T04:55:34;8.00;93.10
24426;DHT22;12611;44.446;26.000;2023-04-06T04:58:02;8.10;93.10
24426;DHT22;12611;44.446;26.000;2023-04-06T05:00:31;8.10;93.00
24426;DHT22;12611;44.446;26.000;2023-04-06T05:02:59;8.00;93.00
24426;DHT22;12611;44.446;26.000;2023-04-06T05:05:28;8.10;93.00
24426;DHT22;12611;44.446;26.000;2023-04-06T05:07:58;8.10;93.00
24426;DHT22;12611;44.446;26.000;2023-04-06T05:10:26;8.10;92.90
24426;DHT22;12611;44.446;26.000;2023-04-06T05:12:55;8.10;92.90
24426;DHT22;12611;44.446;26.000;2023-04-06T05:15:23;8.10;92.90
24426;DHT22;12611;44.446;26.000;2023-04-06T05:17:52;8.20;93.00
24426;DHT22;12611;44.446;26.000;2023-04-06T05:20:21;8.20;92.80
24426;DHT22;12611;44.446;26.000;2023-04-06T05:22:49;8.20;92.80
24426;DHT22;12611;44.446;26.000;2023-04-06T05:25:19;8.30;92.70
24426;DHT22;12611;44.446;26.000;2023-04-06T05:27:48;8.30;92.60
24426;DHT22;12611;44.446;26.000;2023-04-06T05:30:16;8.30;92.50
24426;DHT22;12611;44.446;26.000;2023-04-06T05:32:45;8.30;92.60
24426;DHT22;12611;44.446;26.000;2023-04-06T05:35:13;8.30;92.50
24426;DHT22;12611;44.446;26.000;2023-04-06T05:37:42;8.30;92.50
24426;DHT22;12611;44.446;26.000;2023-04-06T05:40:10;8.30;92.50
24426;DHT22;12611;44.446;26.000;2023-04-06T05:42:41;8.30;92.50
24426;DHT22;12611;44.446;26.000;2023-04-06T05:45:10;8.30;92.40
24426;DHT22;12611;44.446;26.000;2023-04-06T05:47:44;8.30;92.50
24426;DHT22;12611;44.446;26.000;2023-04-06T05:50:14;8.30;92.40
24426;DHT22;12611;44.446;26.000;2023-04-06T05:52:43;8.40;92.40
24426;DHT22;12611;44.446;26.000;2023-04-06T05:55:13;8.40;92.30
24426;DHT22;12611;44.446;26.000;2023-04-06T05:57:43;8.40;92.30
24426;DHT22;12611;44.446;26.000;2023-04-06T06:00:12;8.30;92.20
24426;DHT22;12611;44.446;26.000;2023-04-06T06:02:41;8.40;92.20
24426;DHT22;12611;44.446;26.000;2023-04-06T06:05:10;8.40;92.10
24426;DHT22;12611;44.446;26.000;2023-04-06T06:07:38;8.30;92.20
24426;DHT22;12611;44.446;26.000;2023-04-06T06:10:08;8.40;92.20
24426;DHT22;12611;44.446;26.000;2023-04-06T06:12:37;8.40;92.70
24426;DHT22;12611;44.446;26.000;2023-04-06T06:15:07;8.40;92.20
24426;DHT22;12611;44.446;26.000;2023-04-06T06:17:36;8.50;92.20
24426;DHT22;12611;44.446;26.000;2023-04-06T06:20:07;8.50;92.20
24426;DHT22;12611;44.446;26.000;2023-04-06T06:22:35;8.50;92.10
24426;DHT22;12611;44.446;26.000;2023-04-06T06:25:04;8.60;92.00
24426;DHT22;12611;44.446;26.000;2023-04-06T06:27:32;8.60;92.10
24426;DHT22;12611;44.446;26.000;2023-04-06T06:30:01;8.60;92.00
24426;DHT22;12611;44.446;26.000;2023-04-06T06:32:31;8.70;92.00
24426;DHT22;12611;44.446;26.000;2023-04-06T06:35:00;8.60;91.70
24426;DHT22;12611;44.446;26.000;2023-04-06T06:37:29;8.70;91.70
24426;DHT22;12611;44.446;26.000;2023-04-06T06:39:57;8.70;91.70
24426;DHT22;12611;44.446;26.000;2023-04-06T06:42:26;8.70;91.70
24426;DHT22;12611;44.446;26.000;2023-04-06T06:44:54;8.70;91.70
24426;DHT22;12611;44.446;26.000;2023-04-06T06:47:23;8.80;91.70
24426;DHT22;12611;44.446;26.000;2023-04-06T06:49:54;8.80;91.60
24426;DHT22;12611;44.446;26.000;2023-04-06T06:52:23;8.90;91.60
24426;DHT22;12611;44.446;26.000;2023-04-06T06:54:51;8.90;91.50
24426;DHT22;12611;44.446;26.000;2023-04-06T06:57:23;9.00;91.50
24426;DHT22;12611;44.446;26.000;2023-04-06T06:59:56;9.00;91.20
24426;DHT22;12611;44.446;26.000;2023-04-06T07:02:39;9.10;91.20
24426;DHT22;12611;44.446;26.000;2023-04-06T07:05:09;9.20;91.20
24426;DHT22;12611;44.446;26.000;2023-04-06T07:07:53;9.20;91.00
24426;DHT22;12611;44.446;26.000;2023-04-06T07:10:21;9.20;91.00
24426;DHT22;12611;44.446;26.000;2023-04-06T07:12:50;9.30;91.00
24426;DHT22;12611;44.446;26.000;2023-04-06T07:15:18;9.30;90.90
24426;DHT22;12611;44.446;26.000;2023-04-06T07:17:47;9.30;90.70
24426;DHT22;12611;44.446;26.000;2023-04-06T07:20:17;9.40;90.70
24426;DHT22;12611;44.446;26.000;2023-04-06T07:22:46;9.40;90.70
24426;DHT22;12611;44.446;26.000;2023-04-06T07:25:15;9.50;90.60
24426;DHT22;12611;44.446;26.000;2023-04-06T07:27:43;9.50;90.50
24426;DHT22;12611;44.446;26.000;2023-04-06T07:30:12;9.60;90.50
24426;DHT22;12611;44.446;26.000;2023-04-06T07:32:40;9.60;90.30
24426;DHT22;12611;44.446;26.000;2023-04-06T07:35:09;9.70;90.20
24426;DHT22;12611;44.446;26.000;2023-04-06T07:37:39;9.70;90.10
24426;DHT22;12611;44.446;26.000;2023-04-06T07:40:08;9.70;90.10
24426;DHT22;12611;44.446;26.000;2023-04-06T07:42:36;9.80;89.80
24426;DHT22;12611;44.446;26.000;2023-04-06T07:45:06;9.90;89.70
24426;DHT22;12611;44.446;26.000;2023-04-06T07:47:34;9.90;89.80
24426;DHT22;12611;44.446;26.000;2023-04-06T07:50:03;10.10;89.50
24426;DHT22;12611;44.446;26.000;2023-04-06T07:52:32;10.20;89.50
24426;DHT22;12611;44.446;26.000;2023-04-06T07:55:06;10.20;88.40
24426;DHT22;12611;44.446;26.000;2023-04-06T07:57:34;10.30;88.80
24426;DHT22;12611;44.446;26.000;2023-04-06T08:00:03;10.40;87.90
24426;DHT22;12611;44.446;26.000;2023-04-06T08:02:32;10.40;87.90
24426;DHT22;12611;44.446;26.000;2023-04-06T08:05:00;10.40;87.90
24426;DHT22;12611;44.446;26.000;2023-04-06T08:07:29;10.50;87.90
24426;DHT22;12611;44.446;26.000;2023-04-06T08:09:57;10.60;88.00
24426;DHT22;12611;44.446;26.000;2023-04-06T08:12:28;10.60;87.30
24426;DHT22;12611;44.446;26.000;2023-04-06T08:14:56;10.70;87.20
24426;DHT22;12611;44.446;26.000;2023-04-06T08:17:25;10.80;87.30
24426;DHT22;12611;44.446;26.000;2023-04-06T08:19:57;10.90;86.60
24426;DHT22;12611;44.446;26.000;2023-04-06T08:22:25;10.90;85.90
24426;DHT22;12611;44.446;26.000;2023-04-06T08:24:54;11.00;86.10
24426;DHT22;12611;44.446;26.000;2023-04-06T08:27:22;11.00;85.90
24426;DHT22;12611;44.446;26.000;2023-04-06T08:29:52;11.00;85.60
24426;DHT22;12611;44.446;26.000;2023-04-06T08:32:20;11.10;86.10
24426;DHT22;12611;44.446;26.000;2023-04-06T08:34:49;11.20;86.00
24426;DHT22;12611;44.446;26.000;2023-04-06T08:37:21;11.20;86.10
24426;DHT22;12611;44.446;26.000;2023-04-06T08:39:50;11.30;86.20
24426;DHT22;12611;44.446;26.000;2023-04-06T08:42:20;11.40;85.60
24426;DHT22;12611;44.446;26.000;2023-04-06T08:44:49;11.40;84.70
24426;DHT22;12611;44.446;26.000;2023-04-06T08:47:20;11.40;84.90
24426;DHT22;12611;44.446;26.000;2023-04-06T08:49:51;11.40;84.60
24426;DHT22;12611;44.446;26.000;2023-04-06T08:52:20;11.50;84.80
24426;DHT22;12611;44.446;26.000;2023-04-06T08:54:49;11.50;85.10
24426;DHT22;12611;44.446;26.000;2023-04-06T08:57:18;11.50;84.40
24426;DHT22;12611;44.446;26.000;2023-04-06T08:59:47;11.50;84.10
24426;DHT22;12611;44.446;26.000;2023-04-06T09:02:17;11.50;83.90
24426;DHT22;12611;44.446;26.000;2023-04-06T09:04:49;11.50;84.00
24426;DHT22;12611;44.446;26.000;2023-04-06T09:07:21;11.60;83.70
24426;DHT22;12611;44.446;26.000;2023-04-06T09:09:49;11.60;83.60
24426;DHT22;12611;44.446;26.000;2023-04-06T09:12:25;11.50;83.70
24426;DHT22;12611;44.446;26.000;2023-04-06T09:14:55;11.50;83.70
24426;DHT22;12611;44.446;26.000;2023-04-06T09:17:25;11.60;83.40
24426;DHT22;12611;44.446;26.000;2023-04-06T09:19:55;11.60;83.30
24426;DHT22;12611;44.446;26.000;2023-04-06T09:22:24;11.60;83.10
24426;DHT22;12611;44.446;26.000;2023-04-06T09:24:54;11.60;83.10
24426;DHT22;12611;44.446;26.000;2023-04-06T09:27:30;11.70;83.70
24426;DHT22;12611;44.446;26.000;2023-04-06T09:30:09;11.70;83.30
24426;DHT22;12611;44.446;26.000;2023-04-06T09:32:48;11.70;82.60
24426;DHT22;12611;44.446;26.000;2023-04-06T09:35:19;11.70;82.40
24426;DHT22;12611;44.446;26.000;2023-04-06T09:37:49;11.80;82.50
24426;DHT22;12611;44.446;26.000;2023-04-06T09:40:19;11.90;82.60
24426;DHT22;12611;44.446;26.000;2023-04-06T09:42:50;11.90;81.90
24426;DHT22;12611;44.446;26.000;2023-04-06T09:45:20;11.90;80.40
24426;DHT22;12611;44.446;26.000;2023-04-06T09:47:49;12.00;81.50
24426;DHT22;12611;44.446;26.000;2023-04-06T09:50:22;12.00;81.40
24426;DHT22;12611;44.446;26.000;2023-04-06T09:52:54;12.10;81.30
24426;DHT22;12611;44.446;26.000;2023-04-06T09:55:26;12.20;81.40
24426;DHT22;12611;44.446;26.000;2023-04-06T09:57:58;12.20;79.90
24426;DHT22;12611;44.446;26.000;2023-04-06T10:00:32;12.20;79.60
24426;DHT22;12611;44.446;26.000;2023-04-06T10:03:07;12.20;80.00
24426;DHT22;12611;44.446;26.000;2023-04-06T10:05:43;12.20;79.30
24426;DHT22;12611;44.446;26.000;2023-04-06T10:08:15;12.20;79.00
24426;DHT22;12611;44.446;26.000;2023-04-06T10:10:45;12.20;78.90
24426;DHT22;12611;44.446;26.000;2023-04-06T10:13:15;12.20;78.90
24426;DHT22;12611;44.446;26.000;2023-04-06T10:15:44;12.20;79.60
24426;DHT22;12611;44.446;26.000;2023-04-06T10:18:13;12.20;79.70
24426;DHT22;12611;44.446;26.000;2023-04-06T10:20:47;12.30;80.00
24426;DHT22;12611;44.446;26.000;2023-04-06T10:23:23;12.40;80.10
24426;DHT22;12611;44.446;26.000;2023-04-06T10:25:53;12.50;79.70
24426;DHT22;12611;44.446;26.000;2023-04-06T10:28:23;12.50;79.90
24426;DHT22;12611;44.446;26.000;2023-04-06T10:30:57;12.60;79.80
24426;DHT22;12611;44.446;26.000;2023-04-06T10:33:26;12.60;79.30
24426;DHT22;12611;44.446;26.000;2023-04-06T10:35:58;12.60;79.20
24426;DHT22;12611;44.446;26.000;2023-04-06T10:38:34;12.70;79.90
24426;DHT22;12611;44.446;26.000;2023-04-06T10:41:08;12.70;78.50
24426;DHT22;12611;44.446;26.000;2023-04-06T10:43:38;12.80;78.00
24426;DHT22;12611;44.446;26.000;2023-04-06T10:46:08;12.80;77.80
24426;DHT22;12611;44.446;26.000;2023-04-06T10:48:37;12.80;77.80
24426;DHT22;12611;44.446;26.000;2023-04-06T10:51:12;12.90;77.80
24426;DHT22;12611;44.446;26.000;2023-04-06T10:53:42;12.80;77.40
24426;DHT22;12611;44.446;26.000;2023-04-06T10:56:13;12.80;77.10
24426;DHT22;12611;44.446;26.000;2023-04-06T10:58:44;12.90;77.80
24426;DHT22;12611;44.446;26.000;2023-04-06T11:01:15;12.90;77.10
24426;DHT22;12611;44.446;26.000;2023-04-06T11:03:44;12.90;77.10
24426;DHT22;12611;44.446;26.000;2023-04-06T11:06:20;13.00;77.20
24426;DHT22;12611;44.446;26.000;2023-04-06T11:08:48;13.00;77.80
24426;DHT22;12611;44.446;26.000;2023-04-06T11:11:18;13.10;77.90
24426;DHT22;12611;44.446;26.000;2023-04-06T11:13:51;13.20;77.90
24426;DHT22;12611;44.446;26.000;2023-04-06T11:16:20;13.20;77.50
24426;DHT22;12611;44.446;26.000;2023-04-06T11:18:51;13.30;77.50
24426;DHT22;12611;44.446;26.000;2023-04-06T11:21:33;13.30;77.30
24426;DHT22;12611;44.446;26.000;2023-04-06T11:24:10;13.30;77.30
24426;DHT22;12611;44.446;26.000;2023-04-06T11:26:44;13.40;77.40
24426;DHT22;12611;44.446;26.000;2023-04-06T11:29:13;13.50;77.00
24426;DHT22;12611;44.446;26.000;2023-04-06T11:31:46;13.50;76.10
24426;DHT22;12611;44.446;26.000;2023-04-06T11:34:17;13.60;77.20
24426;DHT22;12611;44.446;26.000;2023-04-06T11:36:48;13.70;76.40
24426;DHT22;12611;44.446;26.000;2023-04-06T11:43:13;13.80;76.00
24426;DHT22;12611;44.446;26.000;2023-04-06T11:45:42;13.80;74.50
24426;DHT22;12611;44.446;26.000;2023-04-06T11:48:18;13.90;74.20
24426;DHT22;12611;44.446;26.000;2023-04-06T11:50:55;13.90;74.70
24426;DHT22;12611;44.446;26.000;2023-04-06T11:53:26;13.90;74.70
24426;DHT22;12611;44.446;26.000;2023-04-06T11:55:55;13.90;74.40
24426;DHT22;12611;44.446;26.000;2023-04-06T11:58:23;13.90;74.10
24426;DHT22;12611;44.446;26.000;2023-04-06T12:00:51;13.90;73.50
24426;DHT22;12611;44.446;26.000;2023-04-06T12:03:20;13.90;73.40
24426;DHT22;12611;44.446;26.000;2023-04-06T12:05:49;13.90;73.90
24426;DHT22;12611;44.446;26.000;2023-04-06T12:08:17;13.80;74.10
24426;DHT22;12611;44.446;26.000;2023-04-06T12:10:47;13.90;74.20
24426;DHT22;12611;44.446;26.000;2023-04-06T12:13:15;13.90;74.40
24426;DHT22;12611;44.446;26.000;2023-04-06T12:15:44;13.90;73.70
24426;DHT22;12611;44.446;26.000;2023-04-06T12:18:12;13.90;74.10
24426;DHT22;12611;44.446;26.000;2023-04-06T12:20:41;14.00;73.70
24426;DHT22;12611;44.446;26.000;2023-04-06T12:23:09;14.00;73.00
24426;DHT22;12611;44.446;26.000;2023-04-06T12:25:39;14.00;73.10
24426;DHT22;12611;44.446;26.000;2023-04-06T12:28:09;14.10;73.00
24426;DHT22;12611;44.446;26.000;2023-04-06T12:30:38;14.10;73.00
24426;DHT22;12611;44.446;26.000;2023-04-06T12:33:08;14.20;72.10
24426;DHT22;12611;44.446;26.000;2023-04-06T12:35:36;14.20;72.40
24426;DHT22;12611;44.446;26.000;2023-04-06T12:38:05;14.30;72.70
24426;DHT22;12611;44.446;26.000;2023-04-06T12:40:36;14.30;72.00
24426;DHT22;12611;44.446;26.000;2023-04-06T12:43:05;14.50;71.90
24426;DHT22;12611;44.446;26.000;2023-04-06T12:45:35;14.50;71.80
24426;DHT22;12611;44.446;26.000;2023-04-06T12:48:04;14.60;71.10
24426;DHT22;12611;44.446;26.000;2023-04-06T12:50:32;14.70;71.40
24426;DHT22;12611;44.446;26.000;2023-04-06T12:53:01;14.80;70.80
24426;DHT22;12611;44.446;26.000;2023-04-06T12:55:30;15.00;70.50
24426;DHT22;12611;44.446;26.000;2023-04-06T12:58:01;15.10;70.40
24426;DHT22;12611;44.446;26.000;2023-04-06T13:00:29;15.30;70.40
24426;DHT22;12611;44.446;26.000;2023-04-06T13:03:00;15.30;68.60
24426;DHT22;12611;44.446;26.000;2023-04-06T13:05:28;15.60;70.80
24426;DHT22;12611;44.446;26.000;2023-04-06T13:07:59;15.60;68.20
24426;DHT22;12611;44.446;26.000;2023-04-06T13:10:27;15.70;66.50
24426;DHT22;12611;44.446;26.000;2023-04-06T13:12:55;15.70;65.90
24426;DHT22;12611;44.446;26.000;2023-04-06T13:15:24;15.70;66.40
24426;DHT22;12611;44.446;26.000;2023-04-06T13:17:52;15.60;66.40
24426;DHT22;12611;44.446;26.000;2023-04-06T13:20:24;15.60;66.70
24426;DHT22;12611;44.446;26.000;2023-04-06T13:22:52;15.80;68.10
24426;DHT22;12611;44.446;26.000;2023-04-06T13:25:21;15.90;64.70
24426;DHT22;12611;44.446;26.000;2023-04-06T13:27:49;16.10;64.90
24426;DHT22;12611;44.446;26.000;2023-04-06T13:30:18;16.40;65.80
24426;DHT22;12611;44.446;26.000;2023-04-06T13:32:46;16.70;63.40
24426;DHT22;12611;44.446;26.000;2023-04-06T13:35:15;16.80;63.30
24426;DHT22;12611;44.446;26.000;2023-04-06T13:37:45;17.20;62.60
24426;DHT22;12611;44.446;26.000;2023-04-06T13:40:13;17.40;62.10
24426;DHT22;12611;44.446;26.000;2023-04-06T13:42:42;17.70;60.10
24426;DHT22;12611;44.446;26.000;2023-04-06T13:45:12;18.00;59.10
24426;DHT22;12611;44.446;26.000;2023-04-06T13:47:40;18.60;58.20
24426;DHT22;12611;44.446;26.000;2023-04-06T13:50:09;19.00;57.50
24426;DHT22;12611;44.446;26.000;2023-04-06T13:52:37;18.90;55.40
24426;DHT22;12611;44.446;26.000;2023-04-06T13:55:08;18.60;55.50
24426;DHT22;12611;44.446;26.000;2023-04-06T13:57:36;18.20;55.60
24426;DHT22;12611;44.446;26.000;2023-04-06T14:00:06;18.10;56.70
24426;DHT22;12611;44.446;26.000;2023-04-06T14:02:35;18.80;55.20
24426;DHT22;12611;44.446;26.000;2023-04-06T14:05:04;21.00;52.60
24426;DHT22;12611;44.446;26.000;2023-04-06T14:07:33;23.00;50.00
24426;DHT22;12611;44.446;26.000;2023-04-06T14:10:01;24.30;46.50
24426;DHT22;12611;44.446;26.000;2023-04-06T14:12:31;24.70;44.20
24426;DHT22;12611;44.446;26.000;2023-04-06T14:14:59;24.80;43.40
24426;DHT22;12611;44.446;26.000;2023-04-06T14:17:28;23.70;44.40
24426;DHT22;12611;44.446;26.000;2023-04-06T14:19:56;23.90;44.70
24426;DHT22;12611;44.446;26.000;2023-04-06T14:22:25;23.20;43.90
24426;DHT22;12611;44.446;26.000;2023-04-06T14:24:53;22.80;44.90
24426;DHT22;12611;44.446;26.000;2023-04-06T14:27:22;22.50;45.60
24426;DHT22;12611;44.446;26.000;2023-04-06T14:29:52;21.90;45.90
24426;DHT22;12611;44.446;26.000;2023-04-06T14:32:21;21.10;46.70
24426;DHT22;12611;44.446;26.000;2023-04-06T14:34:51;20.50;47.60
24426;DHT22;12611;44.446;26.000;2023-04-06T14:37:20;20.20;48.80
24426;DHT22;12611;44.446;26.000;2023-04-06T14:39:52;20.10;48.70
24426;DHT22;12611;44.446;26.000;2023-04-06T14:42:20;21.00;47.90
24426;DHT22;12611;44.446;26.000;2023-04-06T14:44:49;22.20;46.60
24426;DHT22;12611;44.446;26.000;2023-04-06T14:47:19;21.40;46.50
24426;DHT22;12611;44.446;26.000;2023-04-06T14:49:49;21.20;47.20
24426;DHT22;12611;44.446;26.000;2023-04-06T14:52:18;21.00;46.60
24426;DHT22;12611;44.446;26.000;2023-04-06T14:54:47;20.60;47.20
24426;DHT22;12611;44.446;26.000;2023-04-06T14:57:15;20.20;47.80
24426;DHT22;12611;44.446;26.000;2023-04-06T14:59:43;20.60;48.10
24426;DHT22;12611;44.446;26.000;2023-04-06T15:02:12;20.20;48.50
24426;DHT22;12611;44.446;26.000;2023-04-06T15:04:41;20.30;49.10
24426;DHT22;12611;44.446;26.000;2023-04-06T15:07:10;20.10;48.20
24426;DHT22;12611;44.446;26.000;2023-04-06T15:09:39;19.50;48.80
24426;DHT22;12611;44.446;26.000;2023-04-06T15:12:07;19.00;49.70
24426;DHT22;12611;44.446;26.000;2023-04-06T15:14:35;18.60;50.50
24426;DHT22;12611;44.446;26.000;2023-04-06T15:17:04;18.20;51.40
24426;DHT22;12611;44.446;26.000;2023-04-06T15:19:32;17.90;52.70
24426;DHT22;12611;44.446;26.000;2023-04-06T15:22:02;17.60;53.20
24426;DHT22;12611;44.446;26.000;2023-04-06T15:24:30;17.30;53.80
24426;DHT22;12611;44.446;26.000;2023-04-06T15:26:59;17.10;54.30
24426;DHT22;12611;44.446;26.000;2023-04-06T15:29:27;16.90;54.60
24426;DHT22;12611;44.446;26.000;2023-04-06T15:31:55;16.70;55.00
24426;DHT22;12611;44.446;26.000;2023-04-06T15:34:24;16.50;55.60
24426;DHT22;12611;44.446;26.000;2023-04-06T15:36:52;16.20;56.20
24426;DHT22;12611;44.446;26.000;2023-04-06T15:39:22;16.10;56.60